ENTC/TOS METAR and TAF weather

Enter ICAO airport designator
Station Type Date Time Source
ENTC METAR 2022/12/04 11:50 UTC NOAA

ENTC 041150Z 19016KT 9999 SCT035 M02/M06 Q1029 NOSIG RMK WIND 2600FT 16010KT


Station Type Date Time Source
ENTC Decoded METAR 2022/12/04 11:50 UTC NOAA

Tromso / Langnes, Norway (ENTC) 69-41N 018-55E 10M
Dec 04, 2022 - 06:50 AM EST / 2022.12.04 1150 UTC
Wind: from the S (190 degrees) at 18 MPH (16 KT):0
Visibility: greater than 7 mile(s):0
Sky conditions: partly cloudy
Temperature: 28 F (-2 C)
Windchill: 15 F (-9 C):1
Dew Point: 21 F (-6 C)
Relative Humidity: 74%
Pressure (altimeter): 30.39 in. Hg (1029 hPa)
ob: ENTC 041150Z 19016KT 9999 SCT035 M02/M06 Q1029 NOSIG RMK WIND 2600FT 16010KT
cycle: 12

Station Type Date Time Source
ENTC TAF 2022/12/04 12:57 UTC NOAA

TAF ENTC 041100Z 0412/0512 22009KT CAVOK
TEMPO 0420/0503 -RASN BKN014
TEMPO 0503/0512 4000 RA BKN008

Example: see airport list